Time;durP1;ratioP1;P1;durP2;ratioP2;P2;SDS_P1;SDS_P2;PMS_P1;PMS_P2;Temp;Humidity;BMP_temperature;BMP_pressure;BME280_temperature;BME280_humidity;BME280_pressure;Samples;Min_cycle;Max_cycle;Signal;HPM_P1;HPM_P2
2022/10/03 00:01:11;;;;;;;3.40;1.12;;;;;;;8.34;93.19;98796.13;1685330;85;21635;-62
2022/10/03 00:03:54;;;;;;;1.45;1.10;;;;;;;8.33;93.19;98791.69;1653946;85;21187;-63
2022/10/03 00:06:56;;;;;;;2.95;1.40;;;;;;;8.33;93.21;98789.83;1688264;83;21555;-61
2022/10/03 00:09:51;;;;;;;1.90;1.50;;;;;;;8.34;93.17;98792.86;1682803;85;21651;-65
2022/10/03 00:12:54;;;;;;;1.65;1.15;;;;;;;8.35;92.95;98782.78;1683475;85;21203;-63
2022/10/03 00:15:36;;;;;;;2.42;1.55;;;;;;;8.36;92.81;98785.82;1681001;84;21128;-62
2022/10/03 00:19:00;;;;;;;1.98;1.40;;;;;;;8.35;92.60;98780.89;1682647;85;21151;-62
2022/10/03 00:22:08;;;;;;;2.33;1.75;;;;;;;8.36;92.61;98783.09;1680150;84;21187;-65
2022/10/03 00:25:01;;;;;;;1.70;1.40;;;;;;;8.36;92.33;98774.37;1681813;85;21276;-62
2022/10/03 00:27:38;;;;;;;3.00;2.02;;;;;;;8.37;92.19;98772.48;1632652;86;21600;-62
2022/10/03 00:30:21;;;;;;;2.92;2.00;;;;;;;8.38;92.08;98764.07;1689877;84;21187;-64
2022/10/03 00:33:02;;;;;;;2.58;1.80;;;;;;;8.41;91.96;98755.97;1662927;85;21405;-62
2022/10/03 00:36:04;;;;;;;4.15;2.08;;;;;;;8.43;91.74;98762.03;1689173;85;21159;-64
2022/10/03 00:38:57;;;;;;;4.92;1.80;;;;;;;8.45;91.69;98756.69;1665407;86;21152;-62
2022/10/03 00:41:53;;;;;;;3.08;2.02;;;;;;;8.48;91.57;98749.42;1684659;84;21135;-63
2022/10/03 00:44:39;;;;;;;4.22;2.40;;;;;;;8.50;91.63;98753.29;1678052;85;21152;-63
2022/10/03 00:47:44;;;;;;;4.80;2.37;;;;;;;8.52;91.73;98760.72;1690693;85;21210;-63
2022/10/03 00:50:57;;;;;;;3.30;2.30;;;;;;;8.52;91.71;98756.09;1688432;85;21175;-64
2022/10/03 00:54:17;;;;;;;2.65;2.20;;;;;;;8.52;91.50;98761.55;1679866;85;21136;-63
2022/10/03 00:57:13;;;;;;;3.02;1.95;;;;;;;8.51;91.50;98748.14;1654671;87;21181;-64
2022/10/03 01:00:06;;;;;;;2.80;2.27;;;;;;;8.49;91.60;98759.27;1638024;85;21578;-63
2022/10/03 01:02:52;;;;;;;2.25;1.90;;;;;;;8.48;91.46;98748.05;1690997;85;21115;-63
2022/10/03 01:06:13;;;;;;;3.93;2.40;;;;;;;8.49;91.55;98747.52;1661257;84;21175;-62
2022/10/03 01:09:05;;;;;;;4.20;2.10;;;;;;;8.52;91.75;98751.17;1685585;85;21184;-64
2022/10/03 01:12:02;;;;;;;4.75;2.30;;;;;;;8.52;91.63;98753.37;1690118;84;21616;-62
2022/10/03 01:15:04;;;;;;;3.02;2.25;;;;;;;8.52;91.50;98747.91;1672064;85;21189;-62
2022/10/03 01:18:14;;;;;;;2.95;2.15;;;;;;;8.52;91.62;98743.81;1669657;85;21139;-62
2022/10/03 01:20:48;;;;;;;4.33;2.30;;;;;;;8.54;91.72;98745.79;1679861;85;21229;-62
2022/10/03 01:24:07;;;;;;;2.65;2.15;;;;;;;8.55;91.74;98744.73;1677079;85;21151;-62
2022/10/03 01:27:03;;;;;;;2.80;1.80;;;;;;;8.56;91.79;98738.73;1678168;85;21578;-62
2022/10/03 01:32:58;;;;;;;3.77;2.05;;;;;;;8.56;92.06;98742.84;1660418;85;21183;-62
2022/10/03 01:35:54;;;;;;;2.25;1.92;;;;;;;8.55;92.06;98737.91;1680990;85;21167;-63
2022/10/03 01:38:38;;;;;;;3.55;2.00;;;;;;;8.57;92.03;98747.23;1677890;85;21333;-63
2022/10/03 01:41:33;;;;;;;2.15;1.90;;;;;;;8.56;92.10;98760.05;1624987;87;21199;-62
2022/10/03 01:44:29;;;;;;;2.80;2.00;;;;;;;8.53;92.20;98755.04;1653254;85;21185;-62
2022/10/03 01:47:33;;;;;;;3.92;2.08;;;;;;;8.54;92.41;98750.41;1679698;85;21222;-63
2022/10/03 01:50:13;;;;;;;3.12;2.10;;;;;;;8.57;92.66;98754.06;1689620;85;21230;-62
2022/10/03 01:53:03;;;;;;;2.70;2.08;;;;;;;8.57;92.76;98746.70;1683467;85;21577;-63
2022/10/03 01:55:57;;;;;;;2.92;2.17;;;;;;;8.55;92.87;98750.19;1683241;84;21143;-62
2022/10/03 01:59:03;;;;;;;2.98;1.92;;;;;;;8.55;92.97;98744.73;1625160;86;21582;-63
2022/10/03 02:01:56;;;;;;;3.17;1.90;;;;;;;8.53;93.22;98748.22;1660559;84;21135;-62
2022/10/03 02:04:40;;;;;;;3.17;2.10;;;;;;;8.56;93.30;98740.94;1681663;85;21127;-62
2022/10/03 02:07:41;;;;;;;4.17;1.90;;;;;;;8.57;93.29;98745.34;1677332;84;21183;-62
2022/10/03 02:10:40;;;;;;;3.62;2.40;;;;;;;8.59;93.22;98745.11;1644551;87;21604;-63
2022/10/03 02:13:20;;;;;;;3.65;2.30;;;;;;;8.61;93.45;98746.25;1691210;85;21190;-63
2022/10/03 02:16:18;;;;;;;2.70;1.98;;;;;;;8.63;93.55;98738.14;1644501;87;21157;-63
2022/10/03 02:19:20;;;;;;;2.83;2.17;;;;;;;8.62;93.14;98728.81;1682905;85;21591;-62
2022/10/03 02:21:56;;;;;;;3.00;2.33;;;;;;;8.63;93.31;98738.67;1636642;87;21166;-61
2022/10/03 02:24:47;;;;;;;3.62;2.20;;;;;;;8.64;93.44;98744.44;1689456;84;21183;-63
2022/10/03 02:27:27;;;;;;;2.55;2.00;;;;;;;8.64;93.39;98741.70;1692735;85;21178;-62
2022/10/03 02:30:19;;;;;;;3.05;2.02;;;;;;;8.65;93.44;98740.12;1684719;85;21738;-63
2022/10/03 02:33:05;;;;;;;3.47;2.05;;;;;;;8.65;93.34;98733.30;1691749;84;21166;-63
2022/10/03 02:36:15;;;;;;;3.13;2.40;;;;;;;8.65;93.36;98734.66;1690960;84;21139;-63
2022/10/03 02:39:07;;;;;;;4.80;2.33;;;;;;;8.66;93.39;98729.50;1644389;87;21126;-62
2022/10/03 02:42:06;;;;;;;3.67;2.52;;;;;;;8.66;93.50;98739.05;1691371;84;21122;-62
2022/10/03 02:45:14;;;;;;;3.67;2.33;;;;;;;8.68;93.48;98741.56;1689331;85;21637;-64
2022/10/03 02:47:52;;;;;;;3.52;2.62;;;;;;;8.67;93.41;98738.52;1644378;87;21242;-63
2022/10/03 02:50:38;;;;;;;6.60;2.90;;;;;;;8.65;93.46;98729.72;1691014;84;21148;-62
2022/10/03 02:53:28;;;;;;;3.77;2.20;;;;;;;8.65;93.43;98732.45;1689292;85;21151;-62
2022/10/03 02:56:19;;;;;;;3.50;1.92;;;;;;;8.64;93.34;98726.69;1693209;85;21174;-63
2022/10/03 02:59:04;;;;;;;2.85;1.82;;;;;;;8.64;93.34;98732.16;1662750;85;21170;-62
2022/10/03 03:02:02;;;;;;;2.70;1.90;;;;;;;8.66;93.35;98735.48;1685925;84;21162;-62
2022/10/03 03:05:11;;;;;;;2.58;2.00;;;;;;;8.67;93.30;98733.06;1686413;85;21189;-64
2022/10/03 03:08:04;;;;;;;2.77;1.80;;;;;;;8.65;93.10;98731.09;1661872;85;21116;-64
2022/10/03 03:11:06;;;;;;;2.80;2.10;;;;;;;8.61;93.18;98721.16;1682417;84;21186;-63
2022/10/03 03:14:13;;;;;;;3.90;2.27;;;;;;;8.63;93.10;98720.92;1649894;85;21155;-64
2022/10/03 03:17:00;;;;;;;3.25;2.10;;;;;;;8.62;93.02;98724.19;1679946;84;21178;-62
2022/10/03 03:20:00;;;;;;;2.70;2.05;;;;;;;8.66;93.07;98732.76;1666309;85;21223;-63
2022/10/03 03:23:15;;;;;;;2.60;2.00;;;;;;;8.66;93.11;98727.30;1691134;84;21136;-62
2022/10/03 03:25:56;;;;;;;3.12;2.00;;;;;;;8.65;93.00;98722.91;1693013;84;21634;-61
2022/10/03 03:28:57;;;;;;;2.90;2.00;;;;;;;8.65;93.01;98713.34;1663668;85;21195;-62
2022/10/03 03:31:44;;;;;;;3.50;1.80;;;;;;;8.64;92.96;98710.31;1689665;84;21182;-63
2022/10/03 03:34:38;;;;;;;2.52;1.82;;;;;;;8.66;92.99;98716.38;1667622;85;21188;-62
2022/10/03 03:37:31;;;;;;;3.12;2.27;;;;;;;8.67;92.96;98720.25;1695262;83;21178;-62
2022/10/03 03:40:17;;;;;;;3.45;2.20;;;;;;;8.67;92.98;98722.98;1682127;84;21559;-63
2022/10/03 03:42:59;;;;;;;3.03;2.20;;;;;;;8.67;92.84;98713.95;1672805;85;21139;-62
2022/10/03 03:45:42;;;;;;;3.65;2.10;;;;;;;8.63;92.76;98714.10;1688179;84;21590;-63
2022/10/03 03:48:46;;;;;;;5.25;2.22;;;;;;;8.62;92.84;98724.72;1682502;85;21179;-62
2022/10/03 03:51:40;;;;;;;4.33;2.35;;;;;;;8.61;93.01;98717.59;1658080;85;21595;-63
2022/10/03 03:54:46;;;;;;;3.80;2.50;;;;;;;8.58;93.25;98726.53;1624621;88;21673;-63
2022/10/03 03:57:31;;;;;;;4.83;2.60;;;;;;;8.56;93.55;98739.58;1661705;85;21667;-61
2022/10/03 04:00:09;;;;;;;4.75;2.40;;;;;;;8.54;93.71;98718.49;1663150;85;21102;-61
2022/10/03 04:02:56;;;;;;;3.35;2.40;;;;;;;8.52;93.91;98723.34;1680320;83;21146;-63
2022/10/03 04:06:02;;;;;;;2.75;2.35;;;;;;;8.54;94.15;98720.39;1626341;87;21186;-62
2022/10/03 04:09:17;;;;;;;3.60;2.17;;;;;;;8.52;94.23;98726.08;1608639;88;21349;-63
2022/10/03 04:12:09;;;;;;;6.10;2.87;;;;;;;8.49;94.35;98728.42;1632458;88;21593;-62
2022/10/03 04:15:04;;;;;;;4.80;2.80;;;;;;;8.46;94.63;98721.52;1650826;87;21196;-62
2022/10/03 04:21:18;;;;;;;3.25;2.00;;;;;;;8.46;94.96;98727.51;1641022;87;21132;-61
2022/10/03 04:24:18;;;;;;;5.25;2.45;;;;;;;8.43;95.19;98721.94;1651113;86;21222;-62
2022/10/03 04:27:27;;;;;;;2.97;2.40;;;;;;;8.43;95.57;98720.57;1650588;87;21192;-63
2022/10/03 04:30:31;;;;;;;3.55;2.17;;;;;;;8.39;95.64;98723.45;1643291;87;21543;-64
2022/10/03 04:33:09;;;;;;;3.60;2.25;;;;;;;8.41;95.94;98717.77;1632939;87;21153;-62
2022/10/03 04:36:29;;;;;;;4.05;2.00;;;;;;;8.41;96.14;98717.77;1622818;87;21145;-62
2022/10/03 04:39:43;;;;;;;2.77;1.95;;;;;;;8.42;96.30;98723.00;1641814;87;21189;-62
2022/10/03 04:42:48;;;;;;;4.78;2.40;;;;;;;8.44;96.54;98712.69;1656421;85;21563;-64
2022/10/03 04:45:46;;;;;;;5.87;2.87;;;;;;;8.45;96.68;98718.98;1665478;85;21162;-63
2022/10/03 04:48:40;;;;;;;2.87;2.02;;;;;;;8.45;96.82;98717.62;1692713;85;21142;-63
2022/10/03 04:51:53;;;;;;;2.55;2.25;;;;;;;8.45;96.90;98718.48;1692587;84;21178;-64
2022/10/03 04:54:57;;;;;;;2.72;1.90;;;;;;;8.46;97.02;98713.86;1684682;85;21183;-66
2022/10/03 04:57:54;;;;;;;2.65;2.25;;;;;;;8.48;97.05;98708.48;1691913;85;21178;-64
2022/10/03 05:00:32;;;;;;;4.45;2.50;;;;;;;8.48;97.15;98707.64;1680136;85;21119;-63
2022/10/03 05:03:20;;;;;;;4.50;2.30;;;;;;;8.50;97.38;98705.52;1690779;85;21178;-62
2022/10/03 05:06:07;;;;;;;1.98;1.70;;;;;;;8.53;97.46;98705.07;1688687;84;21175;-63
2022/10/03 05:08:58;;;;;;;4.60;2.10;;;;;;;8.53;97.44;98715.46;1680932;84;21111;-63
2022/10/03 05:11:42;;;;;;;3.17;2.30;;;;;;;8.51;97.40;98702.56;1657483;84;21142;-64
2022/10/03 05:14:48;;;;;;;3.92;2.50;;;;;;;8.54;97.60;98699.92;1690021;85;21190;-64
2022/10/03 05:17:23;;;;;;;3.10;2.42;;;;;;;8.55;97.75;98689.30;1691150;85;21574;-64
2022/10/03 05:20:02;;;;;;;5.10;2.45;;;;;;;8.56;97.90;98694.53;1632734;88;21135;-63
2022/10/03 05:23:02;;;;;;;8.43;2.40;;;;;;;8.59;98.00;98695.98;1659844;84;21150;-63
2022/10/03 05:26:07;;;;;;;4.60;3.65;;;;;;;8.61;98.10;98697.95;1689991;85;21171;-63
2022/10/03 05:28:58;;;;;;;3.77;2.37;;;;;;;8.63;98.19;98694.47;1655308;86;21111;-64
2022/10/03 05:31:47;;;;;;;3.75;2.37;;;;;;;8.68;98.42;98701.97;1683158;85;21603;-64
2022/10/03 05:34:40;;;;;;;4.17;2.35;;;;;;;8.71;98.55;98705.61;1689679;85;21146;-64
2022/10/03 05:37:54;;;;;;;3.67;2.70;;;;;;;8.71;98.60;98688.70;1682832;85;21194;-65
2022/10/03 05:40:27;;;;;;;6.25;2.75;;;;;;;8.71;98.76;98695.52;1685226;84;21195;-65
2022/10/03 05:43:10;;;;;;;5.28;2.65;;;;;;;8.74;98.99;98686.05;1675197;85;21147;-64
2022/10/03 05:46:03;;;;;;;3.87;2.80;;;;;;;8.78;99.21;98697.65;1688090;84;21550;-64
2022/10/03 05:49:24;;;;;;;4.95;2.95;;;;;;;8.84;99.41;98669.43;1680605;85;21155;-63
2022/10/03 05:52:38;;;;;;;4.97;2.55;;;;;;;8.89;99.55;98694.16;1679138;85;21191;-65
2022/10/03 05:55:46;;;;;;;4.00;2.92;;;;;;;8.94;99.77;98698.09;1683624;85;21179;-64
2022/10/03 05:58:56;;;;;;;4.95;4.00;;;;;;;8.95;99.80;98670.55;1621725;87;21181;-64
2022/10/03 06:01:48;;;;;;;5.35;3.27;;;;;;;8.96;99.78;98696.80;1672684;85;21127;-65
2022/10/03 06:04:41;;;;;;;5.20;2.83;;;;;;;8.95;99.79;98706.06;1677859;85;21535;-66
2022/10/03 06:07:30;;;;;;;5.00;3.02;;;;;;;8.98;99.96;98693.31;1683418;85;21119;-64
2022/10/03 06:10:26;;;;;;;4.67;3.15;;;;;;;9.02;100.00;98675.93;1681041;85;21145;-65
2022/10/03 06:13:34;;;;;;;5.30;3.62;;;;;;;9.08;100.00;98703.69;1681256;85;21223;-64
2022/10/03 06:16:18;;;;;;;7.20;3.33;;;;;;;9.13;100.00;98700.61;1687034;83;21175;-65
2022/10/03 06:19:02;;;;;;;6.60;3.60;;;;;;;9.17;100.00;98711.91;1676182;83;21456;-64
2022/10/03 06:22:23;;;;;;;5.22;3.17;;;;;;;9.20;100.00;98709.55;1687284;83;21633;-65
2022/10/03 06:25:27;;;;;;;6.78;2.83;;;;;;;9.25;100.00;98698.46;1684479;83;21132;-67
2022/10/03 06:28:39;;;;;;;5.70;2.87;;;;;;;9.29;100.00;98701.03;1684769;84;21181;-65
2022/10/03 06:31:42;;;;;;;4.20;2.08;;;;;;;9.37;100.00;98696.61;1682870;83;21222;-65
2022/10/03 06:35:01;;;;;;;4.03;1.87;;;;;;;9.48;100.00;98697.19;1673148;84;21239;-65
2022/10/03 06:38:11;;;;;;;4.50;2.10;;;;;;;9.61;100.00;98721.60;1669789;84;21148;-64
2022/10/03 06:41:04;;;;;;;6.40;1.98;;;;;;;9.70;100.00;98720.20;1672777;84;21494;-65
2022/10/03 06:44:21;;;;;;;5.55;1.85;;;;;;;9.75;100.00;98714.03;1689005;85;21209;-65
2022/10/03 06:47:26;;;;;;;5.12;1.75;;;;;;;9.83;100.00;98718.66;1689305;83;21145;-64
2022/10/03 06:50:18;;;;;;;4.75;1.70;;;;;;;9.93;99.38;98732.30;1675156;85;21188;-65
2022/10/03 06:53:11;;;;;;;6.55;2.20;;;;;;;10.02;99.02;98730.36;1688263;83;21130;-66
2022/10/03 06:56:12;;;;;;;3.90;1.50;;;;;;;10.08;98.70;98729.42;1684593;85;21682;-64
2022/10/03 06:59:05;;;;;;;7.87;2.75;;;;;;;10.15;98.03;98744.36;1689331;83;21143;-65
2022/10/03 07:02:16;;;;;;;7.53;2.12;;;;;;;10.22;97.12;98737.44;1677730;85;21139;-65
2022/10/03 07:05:16;;;;;;;5.47;1.30;;;;;;;10.29;96.13;98739.00;1689412;85;21636;-64
2022/10/03 07:08:21;;;;;;;3.90;1.32;;;;;;;10.35;95.29;98728.47;1689348;83;21171;-63
2022/10/03 07:11:29;;;;;;;7.03;2.20;;;;;;;10.42;94.47;98751.12;1689417;83;21142;-65
2022/10/03 07:14:50;;;;;;;5.40;2.80;;;;;;;10.45;93.87;98750.64;1689552;85;21151;-65
2022/10/03 07:17:39;;;;;;;3.58;1.55;;;;;;;10.43;93.56;98741.00;1689483;83;21114;-65
2022/10/03 07:20:31;;;;;;;3.52;1.40;;;;;;;10.43;93.34;98743.73;1689504;85;21131;-67
2022/10/03 07:23:32;;;;;;;6.25;2.08;;;;;;;10.43;92.83;98743.20;1689538;83;21143;-65
2022/10/03 07:26:32;;;;;;;2.55;1.27;;;;;;;10.50;92.44;98743.09;1689572;83;21142;-65
2022/10/03 07:29:45;;;;;;;5.33;1.37;;;;;;;10.57;91.47;98753.38;1689710;85;21165;-64
2022/10/03 07:32:53;;;;;;;6.00;2.17;;;;;;;10.66;90.23;98754.69;1689492;83;21119;-66
2022/10/03 07:38:59;;;;;;;4.92;1.72;;;;;;;10.83;89.75;98757.54;1689407;83;22049;-65
2022/10/03 07:41:51;;;;;;;;;;;;;;;10.88;88.33;98754.91;1679382;83;21146;-65
2022/10/03 07:45:00;;;;;;;3.90;1.47;;;;;;;10.93;88.11;98745.44;1689814;85;20553;-64
2022/10/03 07:48:25;;;;;;;4.90;1.50;;;;;;;10.97;88.15;98750.73;1689744;85;21171;-65
2022/10/03 07:51:23;;;;;;;4.72;1.70;;;;;;;11.06;87.91;98753.97;1689435;83;21142;-65
2022/10/03 07:54:07;;;;;;;;;;;;;;;11.13;87.76;98740.97;1692182;83;21151;-66
2022/10/03 07:57:08;;;;;;;3.20;1.67;;;;;;;11.19;87.57;98750.13;1689779;83;20487;-64
2022/10/03 08:00:18;;;;;;;6.05;1.70;;;;;;;11.22;87.52;98744.16;1689424;83;21555;-66
2022/10/03 08:03:15;;;;;;;5.92;1.47;;;;;;;11.26;87.27;98746.70;1689711;83;21143;-65
2022/10/03 08:06:07;;;;;;;4.25;1.62;;;;;;;11.29;87.01;98751.70;1674686;83;21246;-65
2022/10/03 08:09:26;;;;;;;5.67;1.85;;;;;;;11.29;86.63;98742.11;1688817;83;21594;-66
2022/10/03 08:12:43;;;;;;;8.80;2.55;;;;;;;11.28;86.37;98734.96;1684369;84;21143;-66
2022/10/03 08:15:50;;;;;;;9.08;2.05;;;;;;;11.28;86.17;98734.96;1691515;83;21162;-65
2022/10/03 08:18:34;;;;;;;5.92;1.67;;;;;;;11.29;86.43;98742.11;1684345;84;21171;-65
2022/10/03 08:21:17;;;;;;;4.55;1.50;;;;;;;11.31;86.33;98747.65;1670335;84;21202;-65
2022/10/03 08:24:07;;;;;;;4.37;1.55;;;;;;;11.34;85.95;98748.53;1662537;85;21582;-66
2022/10/03 08:27:08;;;;;;;4.37;1.70;;;;;;;11.37;85.38;98744.47;1684341;84;21146;-65
2022/10/03 08:30:05;;;;;;;3.87;1.50;;;;;;;11.38;84.88;98755.20;1691488;85;21206;-65
2022/10/03 08:33:18;;;;;;;5.00;1.70;;;;;;;11.42;84.90;98752.80;1686735;84;21127;-64
2022/10/03 08:36:07;;;;;;;5.10;1.77;;;;;;;11.49;84.81;98748.00;1684280;84;21143;-65
2022/10/03 08:38:51;;;;;;;2.55;1.60;;;;;;;11.56;84.24;98755.55;1691437;83;21151;-65
2022/10/03 08:42:04;;;;;;;5.08;1.85;;;;;;;11.64;83.90;98756.53;1686714;85;21175;-66
2022/10/03 08:44:44;;;;;;;3.25;1.62;;;;;;;11.68;83.41;98749.47;1691567;85;21609;-64
2022/10/03 08:47:34;;;;;;;7.97;1.77;;;;;;;11.72;83.10;98771.26;1686515;85;21664;-66
2022/10/03 08:50:40;;;;;;;3.10;1.55;;;;;;;11.74;82.47;98773.22;1686541;84;21178;-66
2022/10/03 08:54:01;;;;;;;5.47;1.60;;;;;;;11.79;81.72;98768.94;1686510;85;21189;-66
2022/10/03 08:57:06;;;;;;;8.53;2.20;;;;;;;11.83;80.90;98757.77;1691469;85;21186;-65
2022/10/03 09:00:23;;;;;;;3.35;1.40;;;;;;;11.88;80.64;98766.09;1683784;85;21546;-65
2022/10/03 09:03:17;;;;;;;2.95;1.50;;;;;;;11.92;80.25;98770.84;1683340;85;21190;-66
2022/10/03 09:05:57;;;;;;;13.48;6.97;;;;;;;11.93;79.96;98774.42;1681885;85;21207;-67
2022/10/03 09:09:01;;;;;;;4.45;1.92;;;;;;;11.95;79.97;98772.27;1680482;83;21617;-69
2022/10/03 09:12:02;;;;;;;3.65;1.75;;;;;;;11.97;80.16;98777.80;1680101;83;21186;-66
2022/10/03 09:15:13;;;;;;;4.50;1.82;;;;;;;11.97;79.88;98776.96;1677501;84;21163;-66
2022/10/03 09:18:10;;;;;;;3.17;1.60;;;;;;;11.94;79.76;98761.82;1665870;85;21191;-67
2022/10/03 09:21:21;;;;;;;3.00;1.37;;;;;;;11.90;79.31;98770.80;1615427;87;21613;-68
2022/10/03 09:24:21;;;;;;;4.65;1.75;;;;;;;11.90;79.33;98766.14;1632364;88;21183;-68
2022/10/03 09:27:15;;;;;;;6.87;1.50;;;;;;;12.04;78.87;98763.91;1625731;87;21202;-69
2022/10/03 09:30:21;;;;;;;5.35;1.45;;;;;;;12.22;77.72;98773.84;1636659;85;21162;-68
2022/10/03 09:33:38;;;;;;;3.70;1.47;;;;;;;12.34;77.61;98774.59;1628271;87;21146;-67
2022/10/03 09:36:16;;;;;;;4.28;1.60;;;;;;;12.45;75.75;98779.75;1636870;86;21181;-68
2022/10/03 09:39:27;;;;;;;4.25;1.50;;;;;;;12.55;75.16;98776.63;1644620;85;21189;-67
2022/10/03 09:42:46;;;;;;;7.83;1.60;;;;;;;12.64;74.19;98782.53;1664980;85;21144;-67
2022/10/03 09:45:34;;;;;;;4.35;1.37;;;;;;;12.75;74.37;98786.27;1674896;85;21679;-65
2022/10/03 09:48:55;;;;;;;2.58;1.05;;;;;;;12.85;73.62;98775.43;1651766;85;21303;-66
2022/10/03 09:51:45;;;;;;;3.87;1.17;;;;;;;12.92;72.99;98778.29;1689920;85;21238;-66
2022/10/03 09:54:30;;;;;;;4.03;1.12;;;;;;;12.96;71.10;98779.98;1690081;83;21162;-66
2022/10/03 09:57:37;;;;;;;3.47;1.25;;;;;;;12.98;70.90;98771.78;1622084;88;21192;-67
2022/10/03 10:00:17;;;;;;;3.62;1.20;;;;;;;12.98;70.33;98776.45;1689846;85;21157;-67
2022/10/03 10:03:12;;;;;;;5.08;1.47;;;;;;;12.98;70.88;98784.69;1673879;85;21689;-67
2022/10/03 10:06:11;;;;;;;2.42;1.47;;;;;;;13.01;70.96;98778.18;1688532;84;21169;-75
2022/10/03 10:08:59;;;;;;;;;;;;;;;13.11;71.08;98776.66;1687536;85;21111;-68
2022/10/03 10:11:34;;;;;;;5.53;1.60;;;;;;;13.19;70.75;98790.83;1627933;87;20231;-68
2022/10/03 10:14:36;;;;;;;2.22;1.30;;;;;;;13.28;70.21;98781.05;1628320;86;21666;-67
2022/10/03 10:17:53;;;;;;;3.37;1.37;;;;;;;13.38;69.92;98794.66;1608917;86;21862;-67
2022/10/03 10:20:38;;;;;;;3.67;1.27;;;;;;;13.46;68.86;98781.28;1687740;83;21155;-71
2022/10/03 10:23:51;;;;;;;4.42;1.15;;;;;;;13.51;67.62;98785.47;1684429;85;21199;-68
2022/10/03 10:27:03;;;;;;;6.47;1.50;;;;;;;13.53;67.22;98798.43;1679415;85;21150;-66
2022/10/03 10:30:20;;;;;;;2.65;1.27;;;;;;;13.54;67.46;98815.22;1689076;85;21151;-66
2022/10/03 10:33:23;;;;;;;3.02;1.20;;;;;;;13.54;66.71;98793.76;1682922;85;21190;-67
2022/10/03 10:36:34;;;;;;;2.33;1.10;;;;;;;13.51;66.42;98792.34;1628809;87;21298;-67
2022/10/03 10:39:12;;;;;;;3.60;1.50;;;;;;;13.49;66.70;98797.82;1633334;87;21734;-66
2022/10/03 10:42:06;;;;;;;4.37;1.47;;;;;;;13.47;66.89;98796.70;1688925;85;21646;-67
2022/10/03 10:44:57;;;;;;;5.45;1.17;;;;;;;13.46;67.07;98795.04;1668520;85;21236;-66
2022/10/03 10:47:54;;;;;;;2.50;1.40;;;;;;;13.45;67.02;98800.80;1659558;85;21159;-68
2022/10/03 10:50:49;;;;;;;3.95;1.35;;;;;;;13.43;66.44;98786.47;1683295;85;21589;-66
2022/10/03 10:54:02;;;;;;;5.30;1.40;;;;;;;13.38;65.85;98807.86;1689570;85;21141;-69
2022/10/03 10:56:42;;;;;;;4.28;1.40;;;;;;;13.30;66.26;98805.01;1650722;85;21587;-67
2022/10/03 10:59:50;;;;;;;4.25;1.60;;;;;;;13.21;66.85;98797.45;1689320;85;21615;-66
2022/10/03 11:03:04;;;;;;;4.95;1.60;;;;;;;13.18;67.27;98805.67;1672861;85;21144;-67
2022/10/03 11:05:44;;;;;;;3.12;1.25;;;;;;;13.23;67.26;98800.23;1672719;85;21147;-67
2022/10/03 11:08:45;;;;;;;1.98;1.00;;;;;;;13.30;66.34;98798.67;1657051;85;21604;-68
2022/10/03 11:11:57;;;;;;;2.87;1.20;;;;;;;13.33;66.01;98798.17;1674611;85;21131;-66
2022/10/03 11:15:01;;;;;;;1.62;0.98;;;;;;;13.36;65.93;98805.08;1689400;85;21608;-66
2022/10/03 11:18:01;;;;;;;2.27;0.98;;;;;;;13.37;66.61;98806.74;1687546;83;21183;-66
2022/10/03 11:21:20;;;;;;;2.10;1.17;;;;;;;13.33;66.24;98806.42;1676336;84;21067;-66
2022/10/03 11:24:22;;;;;;;2.70;1.15;;;;;;;13.33;66.65;98818.80;1682823;85;21491;-66
2022/10/03 11:27:28;;;;;;;5.67;1.67;;;;;;;13.37;67.25;98809.49;1682400;85;21131;-66
2022/10/03 11:30:28;;;;;;;3.05;1.50;;;;;;;13.41;67.66;98801.85;1642939;85;21629;-66
2022/10/03 11:33:37;;;;;;;5.42;2.00;;;;;;;13.46;67.95;98802.46;1683057;85;21092;-67
2022/10/03 11:36:33;;;;;;;3.65;1.30;;;;;;;13.49;68.23;98828.09;1675146;85;21079;-68
2022/10/03 11:39:14;;;;;;;1.75;1.07;;;;;;;13.49;69.52;98826.16;1652920;85;21448;-66
2022/10/03 11:41:59;;;;;;;2.50;1.30;;;;;;;13.42;69.12;98822.77;1688874;85;21111;-66
2022/10/03 11:44:45;;;;;;;3.22;1.52;;;;;;;13.32;69.75;98807.51;1688593;83;21526;-67
2022/10/03 11:47:23;;;;;;;5.00;1.60;;;;;;;13.24;70.50;98803.28;1688644;85;21055;-67
2022/10/03 11:50:21;;;;;;;5.60;1.30;;;;;;;13.19;71.19;98801.00;1689139;85;21068;-67
2022/10/03 11:53:16;;;;;;;3.55;1.37;;;;;;;13.20;71.28;98803.50;1671782;85;21067;-67
2022/10/03 11:55:52;;;;;;;5.75;1.50;;;;;;;13.23;71.42;98814.53;1688485;85;21099;-66
2022/10/03 11:58:49;;;;;;;3.95;1.40;;;;;;;13.25;71.43;98809.61;1688810;85;21084;-66
2022/10/03 12:02:03;;;;;;;3.13;1.33;;;;;;;13.27;71.34;98814.31;1664152;83;21094;-67
2022/10/03 12:04:46;;;;;;;3.77;1.62;;;;;;;13.29;70.97;98818.47;1683983;85;21083;-68
2022/10/03 12:10:47;;;;;;;3.17;1.57;;;;;;;13.24;69.83;98823.08;1681791;84;21024;-66
2022/10/03 12:13:38;;;;;;;5.12;1.80;;;;;;;13.20;70.03;98821.91;1670152;85;21060;-67
2022/10/03 12:16:50;;;;;;;2.35;1.52;;;;;;;13.19;69.96;98823.00;1679654;85;21064;-65
2022/10/03 12:20:01;;;;;;;4.25;1.55;;;;;;;13.19;70.06;98818.33;1689750;85;21040;-68
2022/10/03 12:22:48;;;;;;;3.37;1.60;;;;;;;13.21;69.98;98815.33;1690290;85;21056;-65
2022/10/03 12:25:29;;;;;;;5.60;1.60;;;;;;;13.23;70.06;98813.16;1690016;85;21506;-66
2022/10/03 12:28:20;;;;;;;5.95;1.45;;;;;;;13.25;69.93;98813.19;1629497;88;21156;-65
2022/10/03 12:31:00;;;;;;;5.17;1.32;;;;;;;13.29;67.95;98812.14;1690471;85;21079;-64
2022/10/03 12:33:54;;;;;;;5.65;1.20;;;;;;;13.34;68.24;98812.20;1686640;85;21431;-66
2022/10/03 12:36:43;;;;;;;4.22;1.02;;;;;;;13.38;68.60;98814.73;1687030;85;21110;-66
2022/10/03 12:39:56;;;;;;;5.08;1.40;;;;;;;13.43;67.65;98813.43;1688784;85;21079;-65
2022/10/03 12:43:08;;;;;;;3.65;1.20;;;;;;;13.46;67.07;98815.67;1678107;85;21070;-66
2022/10/03 12:45:46;;;;;;;2.33;1.07;;;;;;;13.44;67.00;98828.02;1690217;85;21067;-66
2022/10/03 12:48:45;;;;;;;3.37;0.90;;;;;;;13.34;67.71;98863.09;1688288;85;21091;-64
2022/10/03 12:51:35;;;;;;;4.53;1.32;;;;;;;13.18;69.36;98837.84;1658368;86;21008;-66
2022/10/03 12:54:16;;;;;;;2.83;1.00;;;;;;;13.01;71.19;98833.70;1662234;86;21089;-66
2022/10/03 12:57:14;;;;;;;4.97;1.50;;;;;;;12.88;72.69;98821.11;1655985;86;21145;-66
2022/10/03 12:59:48;;;;;;;5.45;1.35;;;;;;;12.85;73.79;98820.78;1677138;85;21068;-68
2022/10/03 13:02:42;;;;;;;2.83;1.27;;;;;;;12.82;74.64;98814.41;1679195;85;21526;-67
2022/10/03 13:06:00;;;;;;;5.45;1.60;;;;;;;12.79;75.16;98811.63;1688167;85;21011;-67
2022/10/03 13:08:43;;;;;;;3.37;1.00;;;;;;;12.79;75.77;98811.63;1689555;85;21074;-66
2022/10/03 13:11:41;;;;;;;3.47;1.10;;;;;;;12.79;75.57;98820.41;1690468;84;21103;-67
2022/10/03 13:14:31;;;;;;;5.30;2.05;;;;;;;12.78;75.19;98818.20;1690677;84;21058;-64
2022/10/03 13:17:28;;;;;;;3.27;1.40;;;;;;;12.79;73.80;98810.25;1680531;84;21060;-66
2022/10/03 13:20:13;;;;;;;3.98;1.37;;;;;;;12.82;73.53;98815.24;1663485;85;21123;-62
2022/10/03 13:22:56;;;;;;;3.98;1.40;;;;;;;12.86;72.08;98815.58;1656354;86;21540;-65
2022/10/03 13:25:48;;;;;;;3.50;1.27;;;;;;;12.86;71.32;98806.78;1687370;85;21031;-68
2022/10/03 13:28:30;;;;;;;8.15;3.10;;;;;;;12.87;70.79;98812.57;1682558;85;20999;-65
2022/10/03 13:31:21;;;;;;;4.47;1.80;;;;;;;12.89;71.51;98845.30;1674244;85;21024;-66
2022/10/03 13:34:00;;;;;;;3.35;1.35;;;;;;;12.84;72.19;98861.17;1675239;85;21063;-65
2022/10/03 13:36:39;;;;;;;3.55;1.20;;;;;;;12.62;74.15;98842.39;1689672;85;21491;-66
2022/10/03 13:39:24;;;;;;;5.00;2.20;;;;;;;12.42;75.51;98825.02;1690253;85;21072;-68
2022/10/03 13:42:23;;;;;;;2.08;1.30;;;;;;;12.27;76.77;98826.93;1673085;85;21561;-70
2022/10/03 13:45:03;;;;;;;4.35;1.52;;;;;;;12.14;77.20;98821.75;1677297;85;21068;-68
2022/10/03 13:47:45;;;;;;;5.53;1.40;;;;;;;12.03;78.30;98822.09;1684042;85;21071;-67
2022/10/03 13:50:22;;;;;;;3.92;1.45;;;;;;;11.98;79.13;98817.05;1683749;85;21039;-65
2022/10/03 13:53:24;;;;;;;6.65;4.30;;;;;;;11.98;80.46;98815.68;1685599;85;21044;-65
2022/10/03 13:56:00;;;;;;;5.00;1.80;;;;;;;11.99;81.58;98817.34;1659116;86;21099;-66
2022/10/03 13:58:43;;;;;;;3.92;1.40;;;;;;;12.06;82.53;98816.12;1685831;85;21430;-66
2022/10/03 14:01:43;;;;;;;2.10;1.45;;;;;;;12.07;82.55;98815.58;1678961;85;21526;-66
2022/10/03 14:04:37;;;;;;;3.55;1.75;;;;;;;12.03;82.52;98809.75;1685783;84;21123;-65
2022/10/03 14:07:31;;;;;;;3.85;1.80;;;;;;;12.04;82.49;98811.41;1686911;85;21068;-66